METAR Data
IDs: Format: Raw Decoded Include TAF

Data at: 2102 UTC 17 Nov 2019

KLXT 172053Z AUTO 33011KT 10SM OVC029 10/03 A2996 RMK AO2 SLP147 T01000028 55006
KLXT 171953Z AUTO 32009KT 10SM BKN027 OVC037 10/04 A2996 RMK AO2 SLP146 T01000039
KLXT 171853Z AUTO 34011G20KT 10SM OVC020 10/04 A2997 RMK AO2 SLP151 T01000039
KLXT 171753Z AUTO 32014G21KT 10SM OVC020 10/04 A2998 RMK AO2 SLP154 T01000039 10106 20078 58000
KLXT 171718Z AUTO 33012G20KT 10SM BKN020 BKN110 10/04 A2998 RMK AO2 T01000039
KLXT 171653Z AUTO 32013KT 10SM FEW019 BKN085 BKN110 10/04 A2999 RMK AO2 SLP156 T01000039
KLXT 171553Z AUTO 31014KT 10SM SCT080 SCT110 09/03 A2998 RMK AO2 SLP156 T00890028
KLXT 171453Z AUTO 30008KT 10SM BKN095 OVC120 08/00 A2998 RMK AO2 SLP154 T00830000 53001
KLXT 171353Z AUTO 23009KT 10SM OVC100 08/M01 A2997 RMK AO2 SLP151 T00831011
KLXT 171253Z AUTO 22008KT 10SM CLR 08/M02 A2997 RMK AO2 SLP150 T00781017
KLXT 171153Z AUTO 22009KT 10SM SCT110 08/M02 A2998 RMK AO2 SLP154 T00781022 10083 20078 58008
KLXT 171053Z AUTO 22010KT 10SM FEW110 08/M02 A2999 RMK AO2 SLP156 T00831022
KLXT 170953Z AUTO 21010KT 10SM OVC100 08/M02 A3000 RMK AO2 SLP160 T00831022
KLXT 170853Z AUTO 20011KT 10SM SCT120 08/M03 A3000 RMK AO2 SLP160 T00831028 56019
KLXT 170753Z AUTO 19009KT 10SM CLR 08/M03 A3002 RMK AO2 SLP165 T00831028
KLXT 170653Z AUTO 18009KT 10SM CLR 08/M03 A3004 RMK AO2 SLP174 T00781028
KLXT 170553Z AUTO 19006KT 10SM CLR 08/M03 A3006 RMK AO2 SLP181 T00831033 10106 20072 401440011 50004
KLXT 170453Z AUTO 17005KT 10SM CLR 08/M03 A3007 RMK AO2 SLP186 T00831033
KLXT 170353Z AUTO 23003KT 10SM CLR 09/M04 A3008 RMK AO2 SLP187 T00891039
KLXT 170253Z AUTO 17009G18KT 10SM CLR 10/M04 A3005 RMK AO2 SLP179 T01001039 55002
KLXT 170153Z AUTO 15008KT 10SM CLR 10/M04 A3004 RMK AO2 SLP177 T01001044
KLXT 170053Z AUTO 14008KT 10SM CLR 10/M04 A3004 RMK AO2 SLP177 T01001044
KLXT 162353Z AUTO 15008KT 10SM CLR 10/M03 A3006 RMK AO2 SLP183 T01001033 10144 20100 56011
KLXT 162253Z AUTO 14007KT 10SM CLR 12/M03 A3006 RMK AO2 SLP184 T01171028
KLXT 162153Z AUTO 16009KT 10SM CLR 13/M03 A3007 RMK AO2 SLP187 T01281028
KLXT 162053Z AUTO 18009KT 10SM CLR 14/M02 A3009 RMK AO2 SLP192 T01441022 56030
KLXT 161953Z AUTO 14011G19KT 10SM CLR 14/M02 A3011 RMK AO2 SLP198 T01391022
KLXT 161853Z AUTO 16010KT 10SM CLR 13/M03 A3014 RMK AO2 SLP210 T01281028
KLXT 161753Z AUTO 16009KT 10SM CLR 11/M03 A3018 RMK AO2 SLP224 T01111033 10117 20011 58024
KLXT 161653Z AUTO 16006KT 10SM CLR 09/M04 A3021 RMK AO2 SLP235 T00941044
KLXT 161553Z AUTO 16009KT 10SM CLR 07/M05 A3024 RMK AO2 SLP245 T00671050
KLXT 161453Z AUTO 17008KT 10SM CLR 04/M07 A3026 RMK AO2 SLP252 T00441067 53001
KLXT 161353Z AUTO 15007KT 10SM CLR 02/M07 A3026 RMK AO2 SLP252 T00221067
KLXT 161253Z AUTO 15008KT 10SM CLR 01/M07 A3025 RMK AO2 SLP250 T00111072
KLXT 161153Z AUTO 14008KT 10SM CLR 02/M08 A3025 RMK AO2 SLP251 T00171078 10039 20017 56005
KLXT 161053Z AUTO 13006KT 10SM CLR 02/M08 A3026 RMK AO2 SLP252 T00221078
KLXT 160953Z AUTO 15008KT 10SM CLR 02/M08 A3026 RMK AO2 SLP252 T00221078